sensor_id;sensor_type;location;lat;lon;timestamp;P1;durP1;ratioP1;P2;durP2;ratioP2
48026;SDS011;50714;49.208;5.364;2022-11-20T00:07:08;3.65;;;3.25;;
48026;SDS011;50714;49.208;5.364;2022-11-20T00:17:08;4.50;;;3.70;;
48026;SDS011;50714;49.208;5.364;2022-11-20T00:27:09;4.07;;;3.67;;
48026;SDS011;50714;49.208;5.364;2022-11-20T00:37:09;4.32;;;3.72;;
48026;SDS011;50714;49.208;5.364;2022-11-20T00:47:09;5.55;;;4.20;;
48026;SDS011;50714;49.208;5.364;2022-11-20T00:57:10;5.03;;;4.07;;
48026;SDS011;50714;49.208;5.364;2022-11-20T01:07:10;3.40;;;3.07;;
48026;SDS011;50714;49.208;5.364;2022-11-20T01:17:11;4.90;;;3.90;;
48026;SDS011;50714;49.208;5.364;2022-11-20T01:27:11;4.07;;;3.30;;
48026;SDS011;50714;49.208;5.364;2022-11-20T01:37:11;4.35;;;3.90;;
48026;SDS011;50714;49.208;5.364;2022-11-20T01:47:12;3.75;;;3.10;;
48026;SDS011;50714;49.208;5.364;2022-11-20T01:57:15;4.90;;;2.72;;
48026;SDS011;50714;49.208;5.364;2022-11-20T02:07:18;3.08;;;2.50;;
48026;SDS011;50714;49.208;5.364;2022-11-20T02:17:19;6.18;;;5.57;;
48026;SDS011;50714;49.208;5.364;2022-11-20T02:27:20;3.40;;;2.92;;
48026;SDS011;50714;49.208;5.364;2022-11-20T02:37:22;2.63;;;2.40;;
48026;SDS011;50714;49.208;5.364;2022-11-20T02:47:23;3.45;;;2.80;;
48026;SDS011;50714;49.208;5.364;2022-11-20T02:57:23;4.35;;;3.25;;
48026;SDS011;50714;49.208;5.364;2022-11-20T03:07:24;4.53;;;3.10;;
48026;SDS011;50714;49.208;5.364;2022-11-20T03:17:24;3.38;;;3.08;;
48026;SDS011;50714;49.208;5.364;2022-11-20T03:27:24;3.33;;;2.90;;
48026;SDS011;50714;49.208;5.364;2022-11-20T03:37:25;4.53;;;2.85;;
48026;SDS011;50714;49.208;5.364;2022-11-20T03:47:25;2.60;;;1.90;;
48026;SDS011;50714;49.208;5.364;2022-11-20T03:57:25;3.75;;;2.42;;
48026;SDS011;50714;49.208;5.364;2022-11-20T04:07:26;3.05;;;2.40;;
48026;SDS011;50714;49.208;5.364;2022-11-20T04:17:26;4.20;;;2.58;;
48026;SDS011;50714;49.208;5.364;2022-11-20T04:27:26;3.83;;;2.70;;
48026;SDS011;50714;49.208;5.364;2022-11-20T04:37:27;3.88;;;2.80;;
48026;SDS011;50714;49.208;5.364;2022-11-20T04:47:27;4.07;;;2.72;;
48026;SDS011;50714;49.208;5.364;2022-11-20T04:57:27;3.72;;;2.55;;
48026;SDS011;50714;49.208;5.364;2022-11-20T05:07:28;3.60;;;2.78;;
48026;SDS011;50714;49.208;5.364;2022-11-20T05:17:28;5.40;;;3.10;;
48026;SDS011;50714;49.208;5.364;2022-11-20T05:27:28;4.10;;;3.30;;
48026;SDS011;50714;49.208;5.364;2022-11-20T05:37:29;3.80;;;3.10;;
48026;SDS011;50714;49.208;5.364;2022-11-20T05:47:31;5.18;;;3.35;;
48026;SDS011;50714;49.208;5.364;2022-11-20T05:57:32;4.88;;;3.22;;
48026;SDS011;50714;49.208;5.364;2022-11-20T06:07:33;4.28;;;3.45;;
48026;SDS011;50714;49.208;5.364;2022-11-20T06:17:33;6.55;;;5.43;;
48026;SDS011;50714;49.208;5.364;2022-11-20T06:27:33;7.45;;;6.40;;
48026;SDS011;50714;49.208;5.364;2022-11-20T06:37:34;9.13;;;6.55;;
48026;SDS011;50714;49.208;5.364;2022-11-20T06:47:34;8.07;;;7.13;;
48026;SDS011;50714;49.208;5.364;2022-11-20T06:57:35;7.75;;;6.95;;
48026;SDS011;50714;49.208;5.364;2022-11-20T07:07:35;9.93;;;8.93;;
48026;SDS011;50714;49.208;5.364;2022-11-20T07:17:35;16.90;;;14.32;;
48026;SDS011;50714;49.208;5.364;2022-11-20T07:27:36;13.38;;;11.98;;
48026;SDS011;50714;49.208;5.364;2022-11-20T07:37:36;10.27;;;8.20;;
48026;SDS011;50714;49.208;5.364;2022-11-20T07:47:37;6.38;;;5.68;;
48026;SDS011;50714;49.208;5.364;2022-11-20T07:57:37;6.45;;;5.43;;
48026;SDS011;50714;49.208;5.364;2022-11-20T08:07:41;6.50;;;4.72;;
48026;SDS011;50714;49.208;5.364;2022-11-20T08:17:43;6.40;;;5.25;;
48026;SDS011;50714;49.208;5.364;2022-11-20T08:27:43;5.85;;;4.32;;
48026;SDS011;50714;49.208;5.364;2022-11-20T08:37:47;4.65;;;3.40;;
48026;SDS011;50714;49.208;5.364;2022-11-20T08:47:47;4.90;;;3.65;;
48026;SDS011;50714;49.208;5.364;2022-11-20T08:57:48;13.77;;;9.45;;
48026;SDS011;50714;49.208;5.364;2022-11-20T09:07:48;9.38;;;6.47;;
48026;SDS011;50714;49.208;5.364;2022-11-20T09:17:52;7.18;;;4.78;;
48026;SDS011;50714;49.208;5.364;2022-11-20T09:27:58;4.30;;;2.70;;
48026;SDS011;50714;49.208;5.364;2022-11-20T09:38:03;2.40;;;1.95;;
48026;SDS011;50714;49.208;5.364;2022-11-20T09:58:47;5.45;;;2.63;;
48026;SDS011;50714;49.208;5.364;2022-11-20T10:08:48;2.00;;;1.60;;
48026;SDS011;50714;49.208;5.364;2022-11-20T10:19:09;2.80;;;1.63;;
48026;SDS011;50714;49.208;5.364;2022-11-20T10:29:36;2.47;;;1.50;;
48026;SDS011;50714;49.208;5.364;2022-11-20T10:39:44;3.80;;;1.55;;
48026;SDS011;50714;49.208;5.364;2022-11-20T10:50:18;11.20;;;6.30;;
48026;SDS011;50714;49.208;5.364;2022-11-20T11:00:20;9.73;;;5.95;;
48026;SDS011;50714;49.208;5.364;2022-11-20T11:10:24;9.65;;;5.95;;
48026;SDS011;50714;49.208;5.364;2022-11-20T11:20:30;7.07;;;5.22;;
48026;SDS011;50714;49.208;5.364;2022-11-20T11:30:50;3.35;;;2.00;;
48026;SDS011;50714;49.208;5.364;2022-11-20T11:40:52;2.75;;;1.80;;
48026;SDS011;50714;49.208;5.364;2022-11-20T11:50:53;3.13;;;1.90;;
48026;SDS011;50714;49.208;5.364;2022-11-20T12:00:58;2.55;;;1.50;;
48026;SDS011;50714;49.208;5.364;2022-11-20T12:52:48;13.52;;;8.63;;
48026;SDS011;50714;49.208;5.364;2022-11-20T13:03:27;10.38;;;7.10;;
48026;SDS011;50714;49.208;5.364;2022-11-20T13:23:44;2.80;;;1.52;;
48026;SDS011;50714;49.208;5.364;2022-11-20T13:33:44;2.53;;;1.38;;
48026;SDS011;50714;49.208;5.364;2022-11-20T13:43:49;3.75;;;1.60;;
48026;SDS011;50714;49.208;5.364;2022-11-20T14:04:15;2.42;;;1.50;;
48026;SDS011;50714;49.208;5.364;2022-11-20T14:14:22;2.10;;;1.40;;
48026;SDS011;50714;49.208;5.364;2022-11-20T14:24:26;2.63;;;1.63;;
48026;SDS011;50714;49.208;5.364;2022-11-20T14:34:30;4.40;;;2.63;;
48026;SDS011;50714;49.208;5.364;2022-11-20T14:44:33;3.53;;;2.13;;
48026;SDS011;50714;49.208;5.364;2022-11-20T14:54:35;3.90;;;1.70;;
48026;SDS011;50714;49.208;5.364;2022-11-20T15:04:44;2.13;;;1.60;;
48026;SDS011;50714;49.208;5.364;2022-11-20T15:14:56;2.30;;;1.30;;
48026;SDS011;50714;49.208;5.364;2022-11-20T15:24:57;1.40;;;1.15;;
48026;SDS011;50714;49.208;5.364;2022-11-20T15:34:57;2.03;;;1.30;;
48026;SDS011;50714;49.208;5.364;2022-11-20T15:44:57;1.45;;;1.10;;
48026;SDS011;50714;49.208;5.364;2022-11-20T15:54:58;1.10;;;0.90;;
48026;SDS011;50714;49.208;5.364;2022-11-20T16:04:58;1.75;;;0.88;;
48026;SDS011;50714;49.208;5.364;2022-11-20T16:14:58;1.30;;;1.00;;
48026;SDS011;50714;49.208;5.364;2022-11-20T16:25:17;2.05;;;1.30;;
48026;SDS011;50714;49.208;5.364;2022-11-20T16:35:18;1.60;;;1.40;;
48026;SDS011;50714;49.208;5.364;2022-11-20T16:45:18;2.30;;;1.30;;
48026;SDS011;50714;49.208;5.364;2022-11-20T16:55:18;3.58;;;2.20;;
48026;SDS011;50714;49.208;5.364;2022-11-20T17:05:19;10.40;;;6.60;;
48026;SDS011;50714;49.208;5.364;2022-11-20T17:15:19;10.98;;;7.00;;
48026;SDS011;50714;49.208;5.364;2022-11-20T17:25:19;13.65;;;9.85;;
48026;SDS011;50714;49.208;5.364;2022-11-20T17:35:20;11.85;;;8.35;;
48026;SDS011;50714;49.208;5.364;2022-11-20T17:45:20;20.38;;;14.27;;
48026;SDS011;50714;49.208;5.364;2022-11-20T17:55:20;13.25;;;9.23;;
48026;SDS011;50714;49.208;5.364;2022-11-20T18:05:21;10.30;;;7.38;;
48026;SDS011;50714;49.208;5.364;2022-11-20T18:15:21;6.70;;;4.23;;
48026;SDS011;50714;49.208;5.364;2022-11-20T18:25:23;4.75;;;2.65;;
48026;SDS011;50714;49.208;5.364;2022-11-20T18:35:23;4.90;;;2.67;;
48026;SDS011;50714;49.208;5.364;2022-11-20T18:45:25;5.55;;;2.85;;
48026;SDS011;50714;49.208;5.364;2022-11-20T18:55:26;9.35;;;4.85;;
48026;SDS011;50714;49.208;5.364;2022-11-20T19:05:26;8.35;;;5.22;;
48026;SDS011;50714;49.208;5.364;2022-11-20T19:15:26;10.80;;;6.75;;
48026;SDS011;50714;49.208;5.364;2022-11-20T19:25:29;10.15;;;7.13;;
48026;SDS011;50714;49.208;5.364;2022-11-20T19:35:30;12.00;;;9.27;;
48026;SDS011;50714;49.208;5.364;2022-11-20T19:45:30;13.18;;;8.93;;
48026;SDS011;50714;49.208;5.364;2022-11-20T19:55:31;13.57;;;9.50;;
48026;SDS011;50714;49.208;5.364;2022-11-20T20:05:32;11.13;;;6.68;;
48026;SDS011;50714;49.208;5.364;2022-11-20T20:15:33;7.88;;;4.22;;
48026;SDS011;50714;49.208;5.364;2022-11-20T20:25:35;6.63;;;3.80;;
48026;SDS011;50714;49.208;5.364;2022-11-20T20:35:40;5.22;;;2.67;;
48026;SDS011;50714;49.208;5.364;2022-11-20T20:45:44;8.38;;;3.65;;
48026;SDS011;50714;49.208;5.364;2022-11-20T20:55:56;5.75;;;3.20;;
48026;SDS011;50714;49.208;5.364;2022-11-20T21:05:57;5.25;;;3.05;;
48026;SDS011;50714;49.208;5.364;2022-11-20T21:15:58;5.93;;;3.70;;
48026;SDS011;50714;49.208;5.364;2022-11-20T21:26:05;6.30;;;3.90;;
48026;SDS011;50714;49.208;5.364;2022-11-20T21:36:07;4.75;;;2.47;;
48026;SDS011;50714;49.208;5.364;2022-11-20T21:46:11;3.30;;;1.90;;
48026;SDS011;50714;49.208;5.364;2022-11-20T21:56:13;10.65;;;6.32;;
48026;SDS011;50714;49.208;5.364;2022-11-20T22:06:15;11.43;;;6.93;;
48026;SDS011;50714;49.208;5.364;2022-11-20T22:16:16;9.32;;;5.82;;
48026;SDS011;50714;49.208;5.364;2022-11-20T22:26:18;9.57;;;6.32;;
48026;SDS011;50714;49.208;5.364;2022-11-20T22:36:23;11.77;;;8.63;;
48026;SDS011;50714;49.208;5.364;2022-11-20T22:46:28;10.97;;;7.70;;
48026;SDS011;50714;49.208;5.364;2022-11-20T22:56:30;8.48;;;5.30;;
48026;SDS011;50714;49.208;5.364;2022-11-20T23:06:32;6.45;;;4.22;;
48026;SDS011;50714;49.208;5.364;2022-11-20T23:16:35;6.60;;;4.60;;
48026;SDS011;50714;49.208;5.364;2022-11-20T23:26:36;9.73;;;6.93;;
48026;SDS011;50714;49.208;5.364;2022-11-20T23:36:38;5.50;;;4.25;;
48026;SDS011;50714;49.208;5.364;2022-11-20T23:46:38;3.13;;;1.95;;
48026;SDS011;50714;49.208;5.364;2022-11-20T23:56:38;2.67;;;1.40;;
